Time;durP1;ratioP1;P1;durP2;ratioP2;P2;SDS_P1;SDS_P2;PMS_P1;PMS_P2;Temp;Humidity;BMP_temperature;BMP_pressure;BME280_temperature;BME280_humidity;BME280_pressure;Samples;Min_cycle;Max_cycle;Signal;HPM_P1;HPM_P2
2022/12/30 00:34:35;;;;;;;19.02;2.55;;;6.50;99.90;;;;;;6132945;22;20046;-78
2022/12/30 00:37:01;;;;;;;15.90;2.95;;;6.60;99.90;;;;;;6230304;22;20032;-77
2022/12/30 00:39:27;;;;;;;19.33;2.92;;;6.30;99.90;;;;;;6230655;22;20015;-77
2022/12/30 00:44:37;;;;;;;20.58;3.75;;;6.30;99.90;;;;;;6255368;22;20011;-80
2022/12/30 00:47:04;;;;;;;17.13;3.67;;;7.00;99.90;;;;;;6255518;22;20224;-78
2022/12/30 00:57:43;;;;;;;14.10;2.88;;;6.20;99.90;;;;;;6255533;22;20079;-78
2022/12/30 01:00:12;;;;;;;21.98;3.45;;;6.20;99.90;;;;;;6231088;22;20058;-77
2022/12/30 01:02:39;;;;;;;11.77;3.03;;;6.30;99.90;;;;;;6230268;22;20235;-77
2022/12/30 01:05:06;;;;;;;14.60;2.90;;;6.10;99.90;;;;;;6229514;22;20066;-78
2022/12/30 01:07:32;;;;;;;18.85;3.42;;;6.30;99.90;;;;;;6229922;22;20035;-79
2022/12/30 01:10:00;;;;;;;16.25;3.22;;;6.30;99.90;;;;;;6255882;22;20019;-78
2022/12/30 01:12:26;;;;;;;14.73;3.88;;;6.30;99.90;;;;;;6230277;22;20012;-78
2022/12/30 01:14:54;;;;;;;18.92;3.22;;;6.10;99.90;;;;;;6230249;22;20025;-78
2022/12/30 01:17:25;;;;;;;17.35;3.10;;;6.10;99.90;;;;;;6255327;22;20012;-79
2022/12/30 01:19:51;;;;;;;13.35;2.80;;;6.10;99.90;;;;;;6255545;22;20011;-77
2022/12/30 01:22:17;;;;;;;17.85;3.08;;;6.10;99.90;;;;;;6205164;22;20042;-78
2022/12/30 01:24:43;;;;;;;18.33;3.05;;;6.10;99.90;;;;;;6229448;22;20030;-77
2022/12/30 01:27:09;;;;;;;16.92;2.75;;;6.30;99.90;;;;;;6204199;22;20011;-77
2022/12/30 01:29:40;;;;;;;21.42;3.88;;;6.20;99.90;;;;;;6205326;22;20026;-77
2022/12/30 01:32:08;;;;;;;13.13;3.22;;;6.00;99.90;;;;;;6231109;22;20019;-78
2022/12/30 01:34:34;;;;;;;15.63;3.28;;;6.20;99.90;;;;;;6204239;22;20282;-77
2022/12/30 01:37:05;;;;;;;16.05;3.33;;;6.40;99.90;;;;;;6258560;22;20198;-78
2022/12/30 01:39:30;;;;;;;22.42;3.90;;;6.10;99.90;;;;;;6286124;22;20008;-78
2022/12/30 01:41:59;;;;;;;17.77;3.03;;;6.00;99.90;;;;;;6260587;22;20610;-79
2022/12/30 01:45:02;;;;;;;24.95;3.25;;;6.00;99.90;;;;;;6260637;22;20035;-80
2022/12/30 01:47:57;;;;;;;25.00;4.13;;;6.20;99.90;;;;;;6285973;22;20364;-78
2022/12/30 01:50:26;;;;;;;18.75;2.95;;;6.20;99.90;;;;;;6269889;22;20010;-78
2022/12/30 01:52:55;;;;;;;16.90;3.60;;;6.20;99.90;;;;;;6260937;22;20011;-78
2022/12/30 01:55:28;;;;;;;15.05;2.58;;;6.10;99.90;;;;;;6283565;22;20026;-78
2022/12/30 01:57:55;;;;;;;16.45;4.05;;;6.00;99.90;;;;;;6259941;22;20197;-78
2022/12/30 02:15:49;;;;;;;;;;;;;;;;;;;;;
2022/12/30 02:27:04;;;;;;;25.33;3.13;;;5.40;99.90;;;;;;6043052;23;20054;-77
2022/12/30 02:29:38;;;;;;;17.45;3.50;;;5.30;99.90;;;;;;6091157;23;20020;-80
2022/12/30 02:32:56;;;;;;;15.43;2.42;;;6.10;99.90;;;;;;6162993;23;20036;-78
2022/12/30 02:35:55;;;;;;;19.67;2.80;;;5.50;99.90;;;;;;6183340;23;20337;-77
2022/12/30 02:38:45;;;;;;;22.90;3.83;;;6.30;99.90;;;;;;6225631;23;20067;-77
2022/12/30 02:44:40;;;;;;;23.17;3.58;;;6.10;99.90;;;;;;6225637;23;20016;-77
2022/12/30 02:47:12;;;;;;;18.08;2.85;;;6.10;99.90;;;;;;6286736;22;20160;-78
2022/12/30 02:49:40;;;;;;;26.95;3.10;;;6.30;99.90;;;;;;6286493;22;20015;-76
2022/12/30 02:52:18;;;;;;;16.58;2.90;;;6.10;99.90;;;;;;6286372;22;20011;-76
2022/12/30 02:54:53;;;;;;;14.30;2.85;;;6.30;99.90;;;;;;6261772;22;20011;-77
2022/12/30 02:57:30;;;;;;;18.75;2.85;;;6.20;99.90;;;;;;6286576;22;20017;-77
2022/12/30 03:06:13;;;;;;;18.15;3.33;;;6.00;99.90;;;;;;6287430;22;20015;-77
2022/12/30 03:09:06;;;;;;;16.02;2.78;;;6.10;99.90;;;;;;6285420;22;20023;-80
2022/12/30 03:11:45;;;;;;;16.67;3.08;;;6.00;99.90;;;;;;6262803;22;20015;-78
2022/12/30 03:14:54;;;;;;;21.77;3.08;;;5.90;99.90;;;;;;6262321;22;20058;-80
2022/12/30 03:17:25;;;;;;;17.63;3.28;;;6.00;99.90;;;;;;6238581;22;20063;-80
2022/12/30 03:19:55;;;;;;;20.13;3.40;;;5.90;99.90;;;;;;6261858;22;20007;-80
2022/12/30 03:29:09;;;;;;;;;;;;;;;;;;;;;
2022/12/30 03:44:09;;;;;;;14.82;3.78;;;7.40;99.90;;;;;;5995369;23;20094;-78
2022/12/30 03:46:42;;;;;;;18.58;3.97;;;5.80;99.90;;;;;;6050735;23;20032;-78
2022/12/30 03:49:40;;;;;;;16.38;3.40;;;4.70;99.90;;;;;;6081448;23;20074;-75
2022/12/30 03:56:19;;;;;;;;;;;;;;;;;;;;;
2022/12/30 03:58:48;;;;;;;15.65;3.83;;;5.80;99.90;;;;;;6105796;23;20044;-78
2022/12/30 04:02:42;;;;;;;15.27;3.38;;;5.40;99.90;;;;;;6093670;23;20013;-78
2022/12/30 04:05:10;;;;;;;10.95;3.22;;;7.10;99.90;;;;;;6194588;23;20119;-78
2022/12/30 04:11:12;;;;;;;14.60;3.30;;;5.40;99.90;;;;;;6140475;23;20069;-78
2022/12/30 04:14:15;;;;;;;19.80;3.65;;;5.40;99.90;;;;;;6144489;23;20346;-78
2022/12/30 04:16:44;;;;;;;18.25;3.47;;;7.00;99.90;;;;;;6132302;23;20289;-80
2022/12/30 04:19:15;;;;;;;16.90;4.05;;;4.00;99.90;;;;;;6134214;23;20521;-80
2022/12/30 04:22:09;;;;;;;11.73;2.78;;;5.60;99.90;;;;;;6166048;23;20016;-79
2022/12/30 04:27:59;;;;;;;18.33;3.85;;;6.00;99.90;;;;;;6139340;23;20040;-79
2022/12/30 04:30:35;;;;;;;14.48;3.13;;;5.90;99.90;;;;;;6100929;23;20042;-80
2022/12/30 04:37:03;;;;;;;26.20;5.22;;;7.50;99.90;;;;;;6099206;23;20050;-78
2022/12/30 04:39:29;;;;;;;21.33;3.88;;;5.60;99.90;;;;;;6038758;23;20107;-78
2022/12/30 04:42:03;;;;;;;17.80;3.40;;;5.40;99.90;;;;;;6060575;23;20064;-79
2022/12/30 04:47:32;;;;;;;11.80;2.90;;;4.70;99.90;;;;;;6060121;23;20022;-78
2022/12/30 04:50:22;;;;;;;23.48;3.50;;;6.00;99.90;;;;;;6069017;23;20045;-78
2022/12/30 04:52:58;;;;;;;;;;;;;;;;;;;;;
2022/12/30 04:55:27;;;;;;;12.65;3.53;;;5.90;99.90;;;;;;6104917;23;20062;-79
2022/12/30 05:01:23;;;;;;;17.05;3.83;;;5.40;99.90;;;;;;6110352;23;20021;-79
2022/12/30 05:08:08;;;;;;;16.33;4.35;;;6.20;99.90;;;;;;6011937;23;20514;-78
2022/12/30 05:10:58;;;;;;;18.00;5.32;;;4.70;99.90;;;;;;5987620;23;20020;-77
2022/12/30 05:21:44;;;;;;;;;;;;;;;;;;;;;
2022/12/30 05:28:10;;;;;;;16.85;6.32;;;6.10;99.90;;;;;;5907144;23;20071;-78
2022/12/30 05:30:38;;;;;;;18.40;6.38;;;7.40;99.90;;;;;;5993594;23;20030;-77
2022/12/30 05:33:47;;;;;;;18.48;6.40;;;6.10;99.90;;;;;;5994417;23;20114;-77
2022/12/30 05:36:14;;;;;;;17.90;7.38;;;6.10;99.90;;;;;;6015991;23;20206;-80
2022/12/30 05:38:40;;;;;;;20.75;6.20;;;6.20;99.90;;;;;;6097449;23;20049;-79
2022/12/30 05:41:10;;;;;;;15.30;6.40;;;5.80;99.90;;;;;;6162177;23;20024;-78
2022/12/30 05:44:03;;;;;;;15.93;6.13;;;5.80;99.90;;;;;;6139132;23;20021;-77
2022/12/30 05:46:35;;;;;;;15.40;5.18;;;6.10;99.90;;;;;;6162520;23;20008;-77
2022/12/30 05:49:01;;;;;;;13.57;5.40;;;5.90;99.90;;;;;;6172186;22;20007;-78
2022/12/30 05:51:36;;;;;;;14.68;4.68;;;6.00;99.90;;;;;;6285801;22;20018;-79
2022/12/30 05:54:08;;;;;;;10.07;4.40;;;5.60;99.90;;;;;;6258749;22;20011;-78
2022/12/30 05:56:34;;;;;;;15.32;5.60;;;5.30;99.90;;;;;;6234588;22;20011;-78
2022/12/30 05:58:59;;;;;;;20.50;4.85;;;6.10;99.90;;;;;;6233800;22;20061;-76
2022/12/30 06:02:09;;;;;;;13.13;4.68;;;5.70;99.90;;;;;;6284926;22;20019;-76
2022/12/30 06:04:59;;;;;;;15.63;4.72;;;6.00;99.90;;;;;;6108118;23;20051;-78
2022/12/30 06:11:09;;;;;;;11.60;4.13;;;5.60;99.90;;;;;;6073908;23;20014;-79
2022/12/30 06:13:47;;;;;;;19.10;5.50;;;5.70;99.90;;;;;;6246221;22;20236;-79
2022/12/30 06:16:13;;;;;;;11.57;4.97;;;5.80;99.90;;;;;;6261303;22;20014;-76
2022/12/30 06:18:39;;;;;;;13.02;4.38;;;6.10;99.90;;;;;;6286901;22;20006;-76
2022/12/30 06:25:25;;;;;;;12.77;4.80;;;5.60;99.90;;;;;;6287156;22;20268;-78
2022/12/30 06:39:35;;;;;;;15.98;4.18;;;5.50;99.90;;;;;;6046983;23;20018;-75
2022/12/30 06:50:15;;;;;;;12.50;3.20;;;3.60;99.90;;;;;;5971241;24;20016;-79
2022/12/30 06:52:55;;;;;;;12.93;3.80;;;5.50;99.90;;;;;;6064153;23;20251;-79
2022/12/30 06:55:35;;;;;;;13.32;3.42;;;5.50;99.90;;;;;;6170453;23;20240;-79
2022/12/30 06:58:06;;;;;;;13.25;4.00;;;5.40;99.90;;;;;;6193715;23;20013;-78
2022/12/30 07:00:47;;;;;;;11.85;2.88;;;5.30;99.90;;;;;;6194664;23;20020;-80
2022/12/30 07:07:22;;;;;;;11.98;2.95;;;5.10;99.90;;;;;;5958381;24;20083;-80
2022/12/30 07:13:06;;;;;;;13.10;3.63;;;5.70;99.90;;;;;;6047857;23;20025;-79
2022/12/30 07:15:40;;;;;;;16.42;3.78;;;5.30;99.90;;;;;;6184992;23;20211;-79
2022/12/30 07:18:17;;;;;;;16.10;3.65;;;5.60;99.90;;;;;;6194391;23;20028;-79
2022/12/30 07:20:43;;;;;;;16.60;3.55;;;6.30;99.90;;;;;;6147706;23;20027;-81
2022/12/30 07:23:09;;;;;;;10.90;3.58;;;5.20;99.90;;;;;;6194837;23;20071;-79
2022/12/30 07:25:36;;;;;;;14.10;3.00;;;3.90;99.90;;;;;;6224947;22;20008;-80
2022/12/30 07:28:05;;;;;;;8.32;3.05;;;4.90;99.90;;;;;;6230491;22;20015;-80
2022/12/30 07:30:49;;;;;;;14.00;3.33;;;7.40;99.90;;;;;;6205977;22;20275;-78
2022/12/30 07:33:35;;;;;;;15.88;3.50;;;5.20;99.90;;;;;;6231076;22;20007;-79
2022/12/30 07:36:03;;;;;;;10.77;2.85;;;5.00;99.90;;;;;;6230432;22;20043;-78
2022/12/30 07:38:53;;;;;;;12.43;2.53;;;4.90;99.90;;;;;;6230091;22;20332;-77
2022/12/30 07:42:06;;;;;;;8.25;2.35;;;5.20;99.90;;;;;;6256820;22;20251;-78
2022/12/30 07:44:37;;;;;;;10.93;2.80;;;5.30;99.90;;;;;;6285382;22;20030;-78
2022/12/30 07:47:03;;;;;;;17.60;3.58;;;5.30;99.90;;;;;;6212085;22;20011;-78
2022/12/30 07:49:49;;;;;;;15.77;3.22;;;5.30;99.90;;;;;;6261284;22;20007;-78
2022/12/30 07:52:54;;;;;;;12.10;2.97;;;6.40;99.90;;;;;;6234244;22;20025;-77
2022/12/30 08:00:00;;;;;;;5.70;2.13;;;4.20;99.90;;;;;;6009797;23;20026;-78
2022/12/30 08:10:01;;;;;;;8.75;2.80;;;5.20;99.90;;;;;;6090223;23;20029;-78
2022/12/30 08:12:29;;;;;;;12.32;3.05;;;5.00;99.90;;;;;;6215452;23;20019;-76
2022/12/30 08:15:21;;;;;;;8.75;3.03;;;4.20;99.90;;;;;;6200691;23;20019;-77
2022/12/30 08:18:05;;;;;;;;;;;;;;;;;;;;;
2022/12/30 08:25:33;;;;;;;11.85;2.63;;;4.60;99.90;;;;;;6157458;23;20012;-76
2022/12/30 08:31:38;;;;;;;10.05;3.08;;;5.30;99.90;;;;;;6311858;22;20447;-77
2022/12/30 08:34:21;;;;;;;16.60;3.20;;;3.60;99.90;;;;;;6196082;23;20020;-76
2022/12/30 08:41:18;;;;;;;7.80;2.47;;;5.70;99.90;;;;;;6117538;23;20017;-77
2022/12/30 08:45:01;;;;;;;11.88;2.67;;;5.70;99.90;;;;;;6101604;23;20069;-79
2022/12/30 08:48:20;;;;;;;10.60;2.95;;;4.10;99.90;;;;;;6119474;23;20057;-77
2022/12/30 08:51:34;;;;;;;;;;;;;;;;;;;;;
2022/12/30 09:01:42;;;;;;;9.35;2.72;;;6.80;99.90;;;;;;6209398;23;20015;-77
2022/12/30 09:04:17;;;;;;;9.73;3.13;;;5.40;99.90;;;;;;6166365;22;20230;-78
2022/12/30 09:06:55;;;;;;;9.27;2.85;;;5.80;99.90;;;;;;6261342;22;20246;-78
2022/12/30 09:09:38;;;;;;;;;;;;;;;;;;;;;
2022/12/30 09:12:04;;;;;;;9.57;2.72;;;4.60;99.90;;;;;;6281550;22;20027;-77
2022/12/30 09:14:39;;;;;;;15.55;3.03;;;5.60;99.90;;;;;;6261035;22;20018;-76
2022/12/30 09:17:25;;;;;;;15.73;3.10;;;5.70;99.90;;;;;;6285139;22;20073;-76
2022/12/30 09:21:14;;;;;;;11.90;2.97;;;7.20;99.90;;;;;;6261047;22;20070;-77
2022/12/30 09:23:39;;;;;;;10.65;3.03;;;6.90;99.90;;;;;;6184329;23;20017;-78
2022/12/30 09:26:06;;;;;;;13.10;2.95;;;5.60;99.90;;;;;;6279764;22;20015;-78
2022/12/30 09:28:32;;;;;;;7.88;2.65;;;5.50;99.90;;;;;;6284436;22;20007;-76
2022/12/30 09:30:58;;;;;;;14.60;3.47;;;5.70;99.90;;;;;;6260037;22;20019;-77
2022/12/30 09:33:24;;;;;;;9.95;2.50;;;5.80;99.90;;;;;;6259693;22;20067;-78
2022/12/30 09:35:51;;;;;;;10.65;2.50;;;5.80;99.90;;;;;;6259572;22;20030;-76
2022/12/30 09:38:16;;;;;;;23.83;2.72;;;5.80;99.90;;;;;;6259070;22;20034;-77
2022/12/30 09:40:54;;;;;;;9.93;3.28;;;5.80;99.90;;;;;;6260108;22;20038;-76
2022/12/30 09:43:20;;;;;;;11.30;3.17;;;5.90;99.90;;;;;;6284346;22;20019;-75
2022/12/30 09:46:00;;;;;;;11.30;2.55;;;6.70;99.90;;;;;;6286475;22;20022;-76
2022/12/30 09:48:31;;;;;;;12.25;3.92;;;5.80;99.90;;;;;;6286781;22;20007;-77
2022/12/30 09:51:02;;;;;;;6.70;2.42;;;5.80;99.90;;;;;;6287855;22;20062;-77
2022/12/30 09:53:46;;;;;;;11.18;3.05;;;5.80;99.90;;;;;;6287263;22;20024;-77
2022/12/30 09:56:36;;;;;;;9.63;2.95;;;6.00;99.90;;;;;;6261632;22;20053;-77
2022/12/30 09:59:19;;;;;;;9.10;3.03;;;6.10;99.90;;;;;;6260797;22;20022;-78
2022/12/30 10:01:50;;;;;;;10.85;3.17;;;6.10;99.90;;;;;;6260246;22;20018;-77
2022/12/30 10:04:20;;;;;;;14.48;3.22;;;6.10;99.90;;;;;;6284736;22;20015;-78
2022/12/30 10:07:21;;;;;;;8.85;2.53;;;6.20;99.90;;;;;;6235092;22;20022;-76
2022/12/30 10:09:56;;;;;;;8.55;2.50;;;6.20;99.90;;;;;;6279887;22;20015;-77
2022/12/30 10:12:40;;;;;;;8.02;2.28;;;6.10;99.90;;;;;;6285910;22;20070;-77
2022/12/30 10:23:11;;;;;;;9.32;2.80;;;5.70;99.90;;;;;;6218595;23;20078;-78
2022/12/30 10:26:43;;;;;;;9.07;2.42;;;7.10;99.90;;;;;;6193909;23;20009;-79
2022/12/30 10:29:43;;;;;;;8.43;2.65;;;6.40;99.90;;;;;;6225605;22;20021;-78
2022/12/30 10:40:48;;;;;;;11.30;2.75;;;6.70;99.90;;;;;;6204812;22;20070;-77
2022/12/30 10:48:05;;;;;;;7.18;2.40;;;6.50;99.90;;;;;;6045761;23;20059;-77
2022/12/30 10:51:21;;;;;;;9.48;2.38;;;5.70;99.90;;;;;;6022720;23;20027;-78
2022/12/30 10:54:05;;;;;;;6.85;2.08;;;7.30;99.90;;;;;;6093992;23;20043;-75
2022/12/30 10:56:35;;;;;;;8.95;2.85;;;8.20;99.90;;;;;;6162138;23;20072;-77
2022/12/30 10:59:12;;;;;;;5.30;2.10;;;6.80;99.90;;;;;;6191567;23;20063;-76
2022/12/30 11:01:42;;;;;;;8.20;2.40;;;7.10;99.90;;;;;;6193549;23;20040;-74
2022/12/30 11:04:27;;;;;;;9.32;2.15;;;7.00;99.90;;;;;;6194285;23;20072;-75
2022/12/30 11:07:01;;;;;;;8.05;2.58;;;7.00;99.90;;;;;;6168665;23;20016;-74
2022/12/30 11:09:27;;;;;;;6.65;2.42;;;7.00;99.90;;;;;;6193715;23;20008;-75
2022/12/30 11:15:03;;;;;;;8.70;1.80;;;7.10;99.90;;;;;;6238860;22;20015;-77
2022/12/30 11:18:20;;;;;;;5.20;1.75;;;7.10;99.90;;;;;;6229804;22;20020;-76
2022/12/30 11:20:52;;;;;;;6.40;2.05;;;7.20;99.90;;;;;;6253803;22;20019;-76
2022/12/30 11:23:23;;;;;;;6.32;1.42;;;7.10;99.90;;;;;;6230451;22;20063;-76
2022/12/30 11:25:49;;;;;;;3.42;1.40;;;7.20;99.90;;;;;;6256778;22;20577;-77
2022/12/30 11:28:31;;;;;;;9.73;2.25;;;7.30;99.90;;;;;;6230746;22;20011;-75
2022/12/30 11:31:47;;;;;;;;;;;;;;;;;;;;;
2022/12/30 11:34:30;;;;;;;4.32;1.50;;;7.60;99.90;;;;;;6211704;22;20040;-76
2022/12/30 11:36:55;;;;;;;5.28;2.00;;;7.30;99.90;;;;;;6229715;22;20106;-75
2022/12/30 11:39:25;;;;;;;5.05;2.30;;;7.20;99.90;;;;;;6254435;22;20294;-77
2022/12/30 11:41:59;;;;;;;6.43;1.90;;;7.30;99.90;;;;;;6229634;22;20039;-76
2022/12/30 11:44:28;;;;;;;5.40;1.55;;;7.30;99.90;;;;;;6257909;22;20328;-76
2022/12/30 11:47:06;;;;;;;7.55;3.10;;;7.30;99.90;;;;;;6260457;22;20007;-77
2022/12/30 11:49:46;;;;;;;9.48;3.00;;;7.30;99.90;;;;;;6285862;22;20066;-75
2022/12/30 11:52:26;;;;;;;9.20;2.20;;;7.40;99.90;;;;;;6285920;22;20011;-76
2022/12/30 11:55:00;;;;;;;5.55;2.05;;;7.50;99.90;;;;;;6286578;22;20015;-75
2022/12/30 11:57:42;;;;;;;6.32;1.20;;;7.50;99.90;;;;;;6258439;22;20023;-74
2022/12/30 12:03:13;;;;;;;3.30;1.33;;;7.60;99.90;;;;;;6269427;22;20069;-74
2022/12/30 12:05:42;;;;;;;5.93;1.80;;;7.60;99.90;;;;;;6257946;22;20042;-73
2022/12/30 12:08:33;;;;;;;5.22;1.90;;;7.60;99.90;;;;;;6259444;22;20115;-76
2022/12/30 12:11:04;;;;;;;3.47;1.48;;;7.70;99.90;;;;;;6285420;22;20034;-73
2022/12/30 12:13:47;;;;;;;6.97;1.83;;;7.80;99.90;;;;;;6285685;22;20123;-76
2022/12/30 12:16:45;;;;;;;5.60;1.70;;;7.70;99.90;;;;;;6285713;22;20046;-75
2022/12/30 12:19:32;;;;;;;4.47;1.80;;;7.80;99.90;;;;;;6284919;22;20007;-73
2022/12/30 12:22:02;;;;;;;6.97;1.33;;;7.80;99.90;;;;;;6285013;22;20015;-74
2022/12/30 12:24:37;;;;;;;4.07;1.58;;;7.80;99.90;;;;;;6260735;22;20034;-75
2022/12/30 12:27:11;;;;;;;5.28;1.67;;;7.90;99.90;;;;;;6259358;22;20359;-74
2022/12/30 12:29:37;;;;;;;4.43;2.03;;;7.90;99.90;;;;;;6310396;22;20014;-74
2022/12/30 12:32:05;;;;;;;3.83;2.08;;;8.00;99.90;;;;;;6233546;22;20011;-74
2022/12/30 12:39:03;;;;;;;5.32;1.55;;;8.10;99.90;;;;;;6285573;22;20074;-73
2022/12/30 12:41:50;;;;;;;6.40;1.60;;;7.20;99.90;;;;;;6106827;23;20021;-74
2022/12/30 12:44:42;;;;;;;6.10;1.42;;;8.10;99.90;;;;;;6282351;22;20210;-73
2022/12/30 12:47:23;;;;;;;4.88;2.17;;;8.10;99.90;;;;;;6285424;22;20015;-75
2022/12/30 12:50:16;;;;;;;4.07;1.65;;;8.10;99.90;;;;;;6258266;22;20050;-75
2022/12/30 12:53:11;;;;;;;5.63;1.75;;;8.20;99.90;;;;;;6258330;22;20015;-73
2022/12/30 12:56:03;;;;;;;4.32;1.25;;;8.20;99.90;;;;;;6258493;22;20011;-75
2022/12/30 12:59:01;;;;;;;3.67;1.38;;;8.20;99.90;;;;;;6285446;22;20011;-74
2022/12/30 13:01:38;;;;;;;7.05;1.98;;;8.20;99.90;;;;;;6126168;22;20053;-73
2022/12/30 13:04:28;;;;;;;5.10;1.60;;;8.30;99.90;;;;;;6285915;22;20014;-73
2022/12/30 13:07:35;;;;;;;6.30;1.50;;;8.30;99.90;;;;;;6284579;22;20007;-75
2022/12/30 13:10:17;;;;;;;6.30;1.48;;;8.30;99.90;;;;;;6257440;22;20007;-76
2022/12/30 13:13:07;;;;;;;4.47;1.40;;;8.30;99.90;;;;;;6258210;22;20007;-73
2022/12/30 13:15:58;;;;;;;3.95;1.45;;;8.30;99.90;;;;;;6259204;22;20011;-75
2022/12/30 13:18:27;;;;;;;4.53;1.85;;;8.30;99.90;;;;;;6283445;22;20022;-73
2022/12/30 13:21:11;;;;;;;5.50;2.15;;;8.30;99.90;;;;;;6282594;22;20019;-74
2022/12/30 13:23:55;;;;;;;4.15;1.55;;;9.80;99.90;;;;;;6286519;22;20015;-73
2022/12/30 13:26:25;;;;;;;4.50;1.55;;;10.20;99.90;;;;;;6282269;22;20007;-74
2022/12/30 13:28:57;;;;;;;6.30;2.83;;;8.30;99.90;;;;;;6284208;22;20371;-75
2022/12/30 13:31:31;;;;;;;2.92;1.42;;;8.40;99.90;;;;;;6284716;22;20026;-76
2022/12/30 13:34:03;;;;;;;5.20;1.80;;;8.40;99.90;;;;;;6259708;22;20018;-76
2022/12/30 13:37:00;;;;;;;6.13;1.90;;;8.40;99.90;;;;;;6284372;22;20359;-76
2022/12/30 13:39:41;;;;;;;5.63;1.60;;;8.50;99.90;;;;;;6259963;22;20014;-75
2022/12/30 13:42:31;;;;;;;5.32;1.05;;;8.50;99.90;;;;;;6284675;22;20011;-73
2022/12/30 13:44:57;;;;;;;3.63;1.40;;;8.60;99.90;;;;;;6257840;22;20339;-73
2022/12/30 13:47:48;;;;;;;4.22;1.25;;;8.70;99.90;;;;;;6230706;22;20011;-75
2022/12/30 13:50:44;;;;;;;2.72;1.20;;;7.30;99.90;;;;;;6234094;22;20049;-76
2022/12/30 13:53:37;;;;;;;6.67;1.33;;;8.60;99.90;;;;;;6241194;22;20061;-74
2022/12/30 13:56:04;;;;;;;6.22;1.50;;;8.60;99.90;;;;;;6259718;22;20077;-76
2022/12/30 13:58:33;;;;;;;4.43;1.42;;;8.70;99.90;;;;;;6283685;22;20094;-76
2022/12/30 14:01:39;;;;;;;5.43;1.45;;;8.70;99.90;;;;;;6259326;22;20003;-74
2022/12/30 14:04:10;;;;;;;11.65;1.20;;;8.70;99.90;;;;;;6285290;22;20014;-75
2022/12/30 14:06:46;;;;;;;2.97;1.23;;;8.70;99.90;;;;;;6257131;22;20011;-77
2022/12/30 14:09:15;;;;;;;3.22;1.40;;;8.70;99.90;;;;;;6283601;22;20015;-74
2022/12/30 14:12:28;;;;;;;8.57;2.33;;;8.80;99.90;;;;;;6254157;22;20019;-75
2022/12/30 14:18:40;;;;;;;4.50;1.65;;;8.80;99.90;;;;;;6283358;22;20031;-74
2022/12/30 14:21:17;;;;;;;3.30;0.93;;;10.00;99.90;;;;;;6256247;22;20015;-75
2022/12/30 14:23:56;;;;;;;4.47;1.20;;;8.90;99.90;;;;;;6282671;22;20022;-75
2022/12/30 14:26:22;;;;;;;3.30;0.90;;;8.80;99.90;;;;;;6283243;22;20015;-74
2022/12/30 14:28:50;;;;;;;2.72;0.80;;;8.90;99.90;;;;;;6255061;22;20015;-75
2022/12/30 14:31:24;;;;;;;3.65;1.30;;;8.90;99.90;;;;;;6258103;22;20298;-77
2022/12/30 14:33:50;;;;;;;2.78;1.17;;;8.90;99.90;;;;;;6258206;22;20023;-74
2022/12/30 14:36:16;;;;;;;7.20;1.23;;;9.00;99.90;;;;;;6283574;22;20050;-74
2022/12/30 14:38:48;;;;;;;2.63;1.15;;;8.90;99.90;;;;;;6284253;22;20011;-77
2022/12/30 14:41:24;;;;;;;1.77;0.82;;;8.90;99.90;;;;;;6258874;22;20348;-76
2022/12/30 14:44:00;;;;;;;4.22;1.23;;;8.90;99.90;;;;;;6256493;22;20020;-74
2022/12/30 14:46:50;;;;;;;6.82;1.77;;;8.90;99.90;;;;;;6258937;22;20100;-74
2022/12/30 14:49:31;;;;;;;5.75;1.50;;;8.90;99.90;;;;;;6285707;22;20384;-74
2022/12/30 14:52:05;;;;;;;5.65;1.30;;;9.00;99.90;;;;;;6286210;22;20245;-74
2022/12/30 14:54:36;;;;;;;5.97;1.83;;;9.00;99.90;;;;;;6260070;22;20045;-74
2022/12/30 14:57:16;;;;;;;7.38;1.35;;;8.90;99.90;;;;;;6260501;22;20055;-75
2022/12/30 15:00:02;;;;;;;4.85;1.42;;;9.00;99.90;;;;;;6286735;22;20190;-75
2022/12/30 15:02:34;;;;;;;2.72;1.23;;;8.80;99.90;;;;;;6260301;22;20035;-75
2022/12/30 15:05:34;;;;;;;4.07;1.10;;;8.80;99.90;;;;;;6285670;22;20034;-74
2022/12/30 15:08:11;;;;;;;5.45;1.60;;;8.60;99.90;;;;;;6259953;22;20015;-75
2022/12/30 15:10:44;;;;;;;4.05;1.25;;;8.60;99.90;;;;;;6285456;22;20015;-75
2022/12/30 15:13:18;;;;;;;1.83;1.10;;;8.40;99.90;;;;;;6260740;22;20018;-75
2022/12/30 15:16:01;;;;;;;5.73;1.43;;;8.30;99.90;;;;;;6286641;22;20452;-77
2022/12/30 15:18:29;;;;;;;4.97;1.50;;;8.40;99.90;;;;;;6260526;22;20072;-75
2022/12/30 15:21:29;;;;;;;4.90;1.35;;;8.50;99.90;;;;;;6285983;22;20065;-77
2022/12/30 15:24:07;;;;;;;7.70;1.58;;;8.50;99.90;;;;;;6285393;22;20043;-76
2022/12/30 15:27:01;;;;;;;;;;;;;;;;;;;;;
2022/12/30 15:29:37;;;;;;;4.28;1.50;;;8.40;99.90;;;;;;6286403;22;20225;-76
2022/12/30 15:32:25;;;;;;;6.38;1.33;;;8.50;99.90;;;;;;6261603;22;20198;-76
2022/12/30 15:34:51;;;;;;;5.22;1.70;;;8.40;99.90;;;;;;6260771;22;20201;-76
2022/12/30 15:37:30;;;;;;;4.10;1.60;;;8.40;99.90;;;;;;6261344;22;20066;-75
2022/12/30 15:39:59;;;;;;;3.42;1.58;;;8.50;99.90;;;;;;6259471;22;20117;-77
2022/12/30 15:42:46;;;;;;;4.20;1.52;;;8.50;99.90;;;;;;6284004;22;20019;-74
2022/12/30 15:45:33;;;;;;;5.18;2.03;;;8.60;99.90;;;;;;6286184;22;20077;-77
2022/12/30 15:47:59;;;;;;;2.78;1.73;;;8.40;99.90;;;;;;6283575;22;20007;-75
2022/12/30 15:50:41;;;;;;;6.03;2.08;;;8.50;99.90;;;;;;6282728;22;20092;-75
2022/12/30 15:53:29;;;;;;;2.72;1.85;;;8.50;99.90;;;;;;6281864;22;20011;-73
2022/12/30 15:56:09;;;;;;;6.35;2.88;;;8.30;99.90;;;;;;6281678;22;20007;-74
2022/12/30 15:58:42;;;;;;;2.88;1.67;;;8.30;99.90;;;;;;6259420;22;20053;-74
2022/12/30 16:01:12;;;;;;;4.45;2.22;;;8.30;99.90;;;;;;6284169;22;20190;-75
2022/12/30 16:03:49;;;;;;;3.05;2.38;;;8.40;99.90;;;;;;6256365;22;20019;-74
2022/12/30 16:06:15;;;;;;;3.30;2.03;;;8.50;99.90;;;;;;6282999;22;20015;-74
2022/12/30 16:08:40;;;;;;;5.00;2.47;;;8.40;99.90;;;;;;6259698;22;20065;-73
2022/12/30 16:11:10;;;;;;;6.53;3.25;;;8.40;99.90;;;;;;6285386;22;20011;-74
2022/12/30 16:13:46;;;;;;;4.45;2.60;;;8.50;99.90;;;;;;6284636;22;20011;-75
2022/12/30 16:16:18;;;;;;;5.35;2.72;;;8.40;99.90;;;;;;6230919;22;20011;-74
2022/12/30 16:19:04;;;;;;;3.65;3.13;;;8.60;99.90;;;;;;6282588;22;20019;-74
2022/12/30 16:21:30;;;;;;;5.55;3.42;;;8.50;99.90;;;;;;6236084;22;20034;-73
2022/12/30 16:23:59;;;;;;;3.83;3.50;;;8.50;99.90;;;;;;6232327;22;20049;-74
2022/12/30 16:26:33;;;;;;;6.57;4.13;;;8.80;99.90;;;;;;6232052;22;20008;-74
2022/12/30 16:31:56;;;;;;;4.78;3.85;;;8.80;99.90;;;;;;6239241;22;20027;-74
2022/12/30 16:34:22;;;;;;;5.03;3.75;;;8.60;99.90;;;;;;6232865;22;20461;-74
2022/12/30 16:37:04;;;;;;;7.22;4.35;;;8.60;99.90;;;;;;6254390;22;20186;-73
2022/12/30 16:40:48;;;;;;;5.72;2.75;;;8.50;99.90;;;;;;6179764;23;20055;-73
2022/12/30 16:43:24;;;;;;;5.80;4.00;;;8.80;99.90;;;;;;6188162;23;20600;-74
2022/12/30 16:46:29;;;;;;;4.75;4.25;;;10.30;99.90;;;;;;6224845;22;20329;-72
2022/12/30 16:49:01;;;;;;;5.13;3.67;;;8.70;99.90;;;;;;6233930;22;20538;-72
2022/12/30 16:52:02;;;;;;;6.82;4.30;;;9.30;99.90;;;;;;6256762;22;20026;-74
2022/12/30 16:54:33;;;;;;;5.30;4.68;;;7.80;99.90;;;;;;6105966;23;20371;-73
2022/12/30 16:57:03;;;;;;;7.25;5.32;;;9.00;99.90;;;;;;6105490;23;20081;-73
2022/12/30 16:59:29;;;;;;;10.73;7.13;;;9.10;99.90;;;;;;6218043;22;20015;-74
2022/12/30 17:01:58;;;;;;;6.63;5.88;;;9.10;99.90;;;;;;6257013;22;20057;-73
2022/12/30 17:04:24;;;;;;;8.38;6.05;;;9.30;99.90;;;;;;6257232;22;20019;-74
2022/12/30 17:06:56;;;;;;;5.55;5.05;;;9.20;99.90;;;;;;6229932;22;20238;-74
2022/12/30 17:13:42;;;;;;;7.43;5.22;;;9.20;99.90;;;;;;6260517;22;20030;-78
2022/12/30 17:16:38;;;;;;;;;;;;;;;;;;;;;
2022/12/30 17:27:14;;;;;;;6.18;5.47;;;8.40;99.90;;;;;;5988410;23;20391;-76
2022/12/30 17:30:29;;;;;;;7.63;6.47;;;9.70;99.90;;;;;;6053565;23;20021;-76
2022/12/30 17:33:56;;;;;;;6.28;3.88;;;9.10;99.90;;;;;;6106110;23;20028;-77
2022/12/30 17:39:40;;;;;;;7.97;5.88;;;9.60;99.90;;;;;;5985556;23;20027;-75
2022/12/30 17:42:07;;;;;;;8.45;7.05;;;8.50;99.90;;;;;;6094720;23;20021;-75
2022/12/30 17:44:36;;;;;;;7.78;5.88;;;9.80;99.90;;;;;;6128779;23;20110;-74
2022/12/30 17:47:11;;;;;;;8.32;5.57;;;9.70;99.90;;;;;;6212235;22;20070;-77
2022/12/30 17:50:03;;;;;;;;;;;;;;;;;;;;;
2022/12/30 17:52:56;;;;;;;;;;;;;;;;;;;;;
2022/12/30 17:55:34;;;;;;;9.38;8.38;;;9.50;99.90;;;;;;6263863;22;20469;-78
2022/12/30 17:59:28;;;;;;;;;;;;;;;;;;;;;
2022/12/30 18:02:23;;;;;;;6.95;6.25;;;9.60;99.90;;;;;;6197609;23;20277;-76
2022/12/30 18:04:52;;;;;;;8.77;6.32;;;8.10;99.90;;;;;;6252193;22;20189;-75
2022/12/30 18:07:17;;;;;;;6.72;5.72;;;10.50;99.90;;;;;;6257273;22;20078;-76
2022/12/30 18:09:58;;;;;;;8.40;7.25;;;9.80;99.90;;;;;;6257650;22;20007;-76
2022/12/30 18:12:26;;;;;;;9.23;7.68;;;9.80;99.90;;;;;;6257043;22;20065;-74
2022/12/30 18:14:52;;;;;;;9.35;7.75;;;10.30;99.90;;;;;;6233521;22;20332;-75
2022/12/30 18:17:38;;;;;;;;;;;;;;;;;;;;;
2022/12/30 18:20:10;;;;;;;11.15;8.35;;;8.70;99.90;;;;;;6286133;22;20018;-77
2022/12/30 18:23:12;;;;;;;6.68;5.40;;;10.30;99.90;;;;;;6262564;22;20019;-76
2022/12/30 18:25:55;;;;;;;7.55;5.90;;;10.20;99.90;;;;;;6251561;22;20066;-77
2022/12/30 18:36:23;;;;;;;8.32;6.65;;;9.60;99.90;;;;;;6128964;23;20016;-76